Terminal Aerodrome Forecast
Issued by NWS Hastings, NE

Home | Current Version | Previous Version | Text Only | Print | Product List | Glossary On
Versions: 1 2 3 4 5 6 7 8 9 10 11 12 13 14 15 16
782
FTUS45 KGID 241127
TAFEAR
TAF
KEAR 241127Z 2412/2512 30005KT P6SM BKN250
     FM250800 36004KT P6SM FEW200
      AMD LTD TO CLD VIS AND WIND=

USA.gov is the U.S. government's official web portal to all federal, state and local government web resources and services.